sensor_id;sensor_type;location;lat;lon;timestamp;pressure;altitude;pressure_sealevel;temperature;humidity
73024;BME280;72676;47.526;8.538;2024-03-06T00:02:20;96448.94;;;6.30;79.86
73024;BME280;72676;47.526;8.538;2024-03-06T00:04:46;96443.19;;;5.89;81.24
73024;BME280;72676;47.526;8.538;2024-03-06T00:07:13;96455.66;;;5.84;81.93
73024;BME280;72676;47.526;8.538;2024-03-06T00:09:39;96456.81;;;5.80;82.88
73024;BME280;72676;47.526;8.538;2024-03-06T00:12:06;96455.88;;;5.81;83.42
73024;BME280;72676;47.526;8.538;2024-03-06T00:14:33;96457.34;;;5.85;82.51
73024;BME280;72676;47.526;8.538;2024-03-06T00:16:59;96459.47;;;5.78;82.75
73024;BME280;72676;47.526;8.538;2024-03-06T00:19:26;96459.19;;;5.83;82.76
73024;BME280;72676;47.526;8.538;2024-03-06T00:21:52;96463.97;;;5.89;82.21
73024;BME280;72676;47.526;8.538;2024-03-06T00:24:19;96473.44;;;5.90;81.96
73024;BME280;72676;47.526;8.538;2024-03-06T00:26:45;96470.91;;;6.01;81.89
73024;BME280;72676;47.526;8.538;2024-03-06T00:29:13;96469.97;;;6.14;81.95
73024;BME280;72676;47.526;8.538;2024-03-06T00:31:44;96469.88;;;6.16;81.83
73024;BME280;72676;47.526;8.538;2024-03-06T00:34:11;96476.22;;;6.12;82.56
73024;BME280;72676;47.526;8.538;2024-03-06T00:36:40;96473.91;;;6.20;81.09
73024;BME280;72676;47.526;8.538;2024-03-06T00:39:06;96478.09;;;6.10;81.33
73024;BME280;72676;47.526;8.538;2024-03-06T00:41:35;96478.94;;;5.98;81.95
73024;BME280;72676;47.526;8.538;2024-03-06T00:44:02;96480.59;;;6.11;81.65
73024;BME280;72676;47.526;8.538;2024-03-06T00:46:29;96484.00;;;6.24;81.78
73024;BME280;72676;47.526;8.538;2024-03-06T00:48:55;96479.84;;;6.22;82.60
73024;BME280;72676;47.526;8.538;2024-03-06T00:51:22;96481.81;;;6.31;81.92
73024;BME280;72676;47.526;8.538;2024-03-06T00:54:06;96479.56;;;6.14;82.54
73024;BME280;72676;47.526;8.538;2024-03-06T00:56:32;96478.28;;;6.32;82.21
73024;BME280;72676;47.526;8.538;2024-03-06T00:58:59;96479.91;;;6.45;82.31
73024;BME280;72676;47.526;8.538;2024-03-06T01:01:25;96483.28;;;6.10;82.08
73024;BME280;72676;47.526;8.538;2024-03-06T01:03:53;96482.97;;;6.14;83.26
73024;BME280;72676;47.526;8.538;2024-03-06T01:06:20;96485.59;;;6.02;82.44
73024;BME280;72676;47.526;8.538;2024-03-06T01:08:47;96489.75;;;5.67;84.22
73024;BME280;72676;47.526;8.538;2024-03-06T01:11:13;96492.66;;;5.63;84.54
73024;BME280;72676;47.526;8.538;2024-03-06T01:13:41;96492.34;;;5.55;85.35
73024;BME280;72676;47.526;8.538;2024-03-06T01:16:07;96490.38;;;5.58;84.70
73024;BME280;72676;47.526;8.538;2024-03-06T01:18:34;96492.19;;;5.31;85.71
73024;BME280;72676;47.526;8.538;2024-03-06T01:21:00;96489.44;;;5.08;86.53
73024;BME280;72676;47.526;8.538;2024-03-06T01:23:27;96497.88;;;5.11;87.18
73024;BME280;72676;47.526;8.538;2024-03-06T01:25:53;96498.81;;;5.23;87.03
73024;BME280;72676;47.526;8.538;2024-03-06T01:28:20;96502.97;;;5.25;86.41
73024;BME280;72676;47.526;8.538;2024-03-06T01:30:47;96501.22;;;5.26;85.36
73024;BME280;72676;47.526;8.538;2024-03-06T01:33:13;96498.56;;;5.01;86.90
73024;BME280;72676;47.526;8.538;2024-03-06T01:35:40;96499.34;;;4.89;87.71
73024;BME280;72676;47.526;8.538;2024-03-06T01:38:06;96502.91;;;5.00;88.28
73024;BME280;72676;47.526;8.538;2024-03-06T01:40:33;96501.91;;;5.15;87.00
73024;BME280;72676;47.526;8.538;2024-03-06T01:42:59;96505.28;;;5.30;86.25
73024;BME280;72676;47.526;8.538;2024-03-06T01:45:27;96498.47;;;5.15;85.70
73024;BME280;72676;47.526;8.538;2024-03-06T01:47:53;96497.31;;;5.06;86.08
73024;BME280;72676;47.526;8.538;2024-03-06T01:50:20;96488.34;;;4.85;86.81
73024;BME280;72676;47.526;8.538;2024-03-06T01:52:49;96489.66;;;4.78;87.61
73024;BME280;72676;47.526;8.538;2024-03-06T01:55:17;96488.28;;;4.73;87.77
73024;BME280;72676;47.526;8.538;2024-03-06T01:57:44;96500.69;;;4.68;88.51
73024;BME280;72676;47.526;8.538;2024-03-06T02:00:11;96504.66;;;4.73;88.64
73024;BME280;72676;47.526;8.538;2024-03-06T02:02:41;96504.31;;;4.65;88.63
73024;BME280;72676;47.526;8.538;2024-03-06T02:05:09;96504.16;;;4.68;88.64
73024;BME280;72676;47.526;8.538;2024-03-06T02:07:38;96492.97;;;4.80;88.36
73024;BME280;72676;47.526;8.538;2024-03-06T02:10:07;96491.66;;;4.87;87.16
73024;BME280;72676;47.526;8.538;2024-03-06T02:12:36;96492.63;;;4.72;87.29
73024;BME280;72676;47.526;8.538;2024-03-06T02:15:03;96485.44;;;4.90;87.02
73024;BME280;72676;47.526;8.538;2024-03-06T02:17:30;96482.34;;;4.97;86.31
73024;BME280;72676;47.526;8.538;2024-03-06T02:19:57;96485.88;;;4.70;86.60
73024;BME280;72676;47.526;8.538;2024-03-06T02:22:26;96494.94;;;4.50;87.65
73024;BME280;72676;47.526;8.538;2024-03-06T02:24:52;96498.97;;;4.54;88.33
73024;BME280;72676;47.526;8.538;2024-03-06T02:27:19;96492.63;;;4.72;87.80
73024;BME280;72676;47.526;8.538;2024-03-06T02:29:45;96496.69;;;5.03;87.14
73024;BME280;72676;47.526;8.538;2024-03-06T02:32:12;96494.63;;;5.20;85.98
73024;BME280;72676;47.526;8.538;2024-03-06T02:34:40;96497.88;;;5.24;85.27
73024;BME280;72676;47.526;8.538;2024-03-06T02:37:07;96481.59;;;5.34;84.58
73024;BME280;72676;47.526;8.538;2024-03-06T02:39:34;96498.84;;;4.96;84.70
73024;BME280;72676;47.526;8.538;2024-03-06T02:42:00;96504.31;;;4.65;85.57
73024;BME280;72676;47.526;8.538;2024-03-06T02:44:27;96500.19;;;4.63;85.76
73024;BME280;72676;47.526;8.538;2024-03-06T02:46:54;96501.22;;;4.46;86.61
73024;BME280;72676;47.526;8.538;2024-03-06T02:49:20;96498.22;;;4.66;86.41
73024;BME280;72676;47.526;8.538;2024-03-06T02:51:47;96505.66;;;4.58;86.26
73024;BME280;72676;47.526;8.538;2024-03-06T02:54:13;96502.31;;;4.56;86.79
73024;BME280;72676;47.526;8.538;2024-03-06T02:56:40;96504.22;;;4.40;86.79
73024;BME280;72676;47.526;8.538;2024-03-06T02:59:07;96504.94;;;4.42;87.02
73024;BME280;72676;47.526;8.538;2024-03-06T03:01:33;96507.19;;;4.34;87.02
73024;BME280;72676;47.526;8.538;2024-03-06T03:04:00;96521.31;;;4.57;87.21
73024;BME280;72676;47.526;8.538;2024-03-06T03:06:27;96520.72;;;4.66;86.42
73024;BME280;72676;47.526;8.538;2024-03-06T03:08:53;96518.91;;;4.80;85.59
73024;BME280;72676;47.526;8.538;2024-03-06T03:11:20;96523.88;;;4.97;85.81
73024;BME280;72676;47.526;8.538;2024-03-06T03:13:46;96523.66;;;5.00;84.41
73024;BME280;72676;47.526;8.538;2024-03-06T03:16:17;96522.94;;;4.98;83.60
73024;BME280;72676;47.526;8.538;2024-03-06T03:18:45;96520.78;;;4.78;83.94
73024;BME280;72676;47.526;8.538;2024-03-06T03:21:11;96528.00;;;4.73;84.19
73024;BME280;72676;47.526;8.538;2024-03-06T03:23:39;96519.88;;;4.65;84.54
73024;BME280;72676;47.526;8.538;2024-03-06T03:26:07;96515.44;;;4.67;84.19
73024;BME280;72676;47.526;8.538;2024-03-06T03:28:39;96518.84;;;4.82;83.70
73024;BME280;72676;47.526;8.538;2024-03-06T03:31:07;96512.41;;;4.87;83.44
73024;BME280;72676;47.526;8.538;2024-03-06T03:33:35;96514.16;;;4.87;83.24
73024;BME280;72676;47.526;8.538;2024-03-06T03:36:05;96513.59;;;4.69;84.04
73024;BME280;72676;47.526;8.538;2024-03-06T03:38:37;96525.41;;;4.73;83.67
73024;BME280;72676;47.526;8.538;2024-03-06T03:41:10;96514.00;;;4.49;84.21
73024;BME280;72676;47.526;8.538;2024-03-06T03:43:39;96521.16;;;4.32;84.77
73024;BME280;72676;47.526;8.538;2024-03-06T03:46:06;96514.41;;;4.29;85.77
73024;BME280;72676;47.526;8.538;2024-03-06T03:48:33;96527.75;;;4.23;85.48
73024;BME280;72676;47.526;8.538;2024-03-06T03:51:03;96524.72;;;3.89;86.68
73024;BME280;72676;47.526;8.538;2024-03-06T03:53:31;96533.13;;;4.06;86.82
73024;BME280;72676;47.526;8.538;2024-03-06T03:55:57;96536.91;;;4.15;86.28
73024;BME280;72676;47.526;8.538;2024-03-06T03:58:24;96535.72;;;4.20;85.54
73024;BME280;72676;47.526;8.538;2024-03-06T04:00:50;96538.47;;;4.31;85.13
73024;BME280;72676;47.526;8.538;2024-03-06T04:03:21;96534.84;;;4.48;84.82
73024;BME280;72676;47.526;8.538;2024-03-06T04:05:48;96542.13;;;4.55;83.78
73024;BME280;72676;47.526;8.538;2024-03-06T04:08:15;96540.31;;;4.57;83.89
73024;BME280;72676;47.526;8.538;2024-03-06T04:10:42;96536.38;;;4.64;83.47
73024;BME280;72676;47.526;8.538;2024-03-06T04:13:11;96533.41;;;4.56;83.21
73024;BME280;72676;47.526;8.538;2024-03-06T04:15:38;96543.88;;;4.69;83.22
73024;BME280;72676;47.526;8.538;2024-03-06T04:18:05;96536.94;;;4.55;83.74
73024;BME280;72676;47.526;8.538;2024-03-06T04:20:32;96556.59;;;4.59;84.01
73024;BME280;72676;47.526;8.538;2024-03-06T04:22:58;96548.75;;;4.47;83.49
73024;BME280;72676;47.526;8.538;2024-03-06T04:25:25;96550.88;;;4.40;83.94
73024;BME280;72676;47.526;8.538;2024-03-06T04:27:51;96548.81;;;4.45;84.18
73024;BME280;72676;47.526;8.538;2024-03-06T04:30:18;96562.34;;;4.50;83.92
73024;BME280;72676;47.526;8.538;2024-03-06T04:32:45;96562.88;;;4.55;83.37
73024;BME280;72676;47.526;8.538;2024-03-06T04:35:11;96563.25;;;4.63;83.45
73024;BME280;72676;47.526;8.538;2024-03-06T04:37:38;96563.97;;;4.65;83.29
73024;BME280;72676;47.526;8.538;2024-03-06T04:40:06;96555.84;;;4.57;83.61
73024;BME280;72676;47.526;8.538;2024-03-06T04:42:34;96562.81;;;4.29;84.36
73024;BME280;72676;47.526;8.538;2024-03-06T04:45:11;96564.22;;;4.06;85.60
73024;BME280;72676;47.526;8.538;2024-03-06T04:47:41;96568.66;;;4.04;85.82
73024;BME280;72676;47.526;8.538;2024-03-06T04:50:11;96566.81;;;4.20;84.97
73024;BME280;72676;47.526;8.538;2024-03-06T04:52:41;96571.41;;;4.01;85.07
73024;BME280;72676;47.526;8.538;2024-03-06T04:55:08;96575.69;;;4.16;85.59
73024;BME280;72676;47.526;8.538;2024-03-06T04:57:37;96570.59;;;4.43;85.39
73024;BME280;72676;47.526;8.538;2024-03-06T05:00:04;96576.66;;;4.70;84.08
73024;BME280;72676;47.526;8.538;2024-03-06T05:02:35;96582.69;;;4.70;83.17
73024;BME280;72676;47.526;8.538;2024-03-06T05:05:20;96578.09;;;4.47;83.74
73024;BME280;72676;47.526;8.538;2024-03-06T05:08:04;96582.94;;;4.11;83.96
73024;BME280;72676;47.526;8.538;2024-03-06T05:10:50;96591.06;;;4.05;85.64
73024;BME280;72676;47.526;8.538;2024-03-06T05:13:33;96590.78;;;4.24;85.19
73024;BME280;72676;47.526;8.538;2024-03-06T05:16:17;96597.72;;;4.51;84.76
73024;BME280;72676;47.526;8.538;2024-03-06T05:19:01;96597.25;;;4.31;84.07
73024;BME280;72676;47.526;8.538;2024-03-06T05:21:45;96592.81;;;3.91;86.24
73024;BME280;72676;47.526;8.538;2024-03-06T05:24:29;96600.66;;;3.89;86.63
73024;BME280;72676;47.526;8.538;2024-03-06T05:27:13;96606.63;;;3.76;87.12
73024;BME280;72676;47.526;8.538;2024-03-06T05:30:01;96611.94;;;3.88;86.75
73024;BME280;72676;47.526;8.538;2024-03-06T05:32:45;96608.56;;;3.72;87.39
73024;BME280;72676;47.526;8.538;2024-03-06T05:35:30;96616.34;;;3.72;87.71
73024;BME280;72676;47.526;8.538;2024-03-06T05:38:14;96614.28;;;3.63;87.88
73024;BME280;72676;47.526;8.538;2024-03-06T05:40:58;96612.97;;;3.56;88.70
73024;BME280;72676;47.526;8.538;2024-03-06T05:43:42;96617.25;;;3.71;88.84
73024;BME280;72676;47.526;8.538;2024-03-06T05:46:26;96614.53;;;3.74;88.29
73024;BME280;72676;47.526;8.538;2024-03-06T05:49:10;96620.13;;;3.67;88.36
73024;BME280;72676;47.526;8.538;2024-03-06T05:51:55;96622.63;;;3.68;88.30
73024;BME280;72676;47.526;8.538;2024-03-06T05:54:39;96619.19;;;3.68;88.01
73024;BME280;72676;47.526;8.538;2024-03-06T05:57:23;96631.44;;;3.80;88.27
73024;BME280;72676;47.526;8.538;2024-03-06T06:00:07;96635.84;;;3.93;88.13
73024;BME280;72676;47.526;8.538;2024-03-06T06:02:37;96635.66;;;3.96;87.41
73024;BME280;72676;47.526;8.538;2024-03-06T06:05:05;96644.34;;;3.95;87.31
73024;BME280;72676;47.526;8.538;2024-03-06T06:07:49;96642.03;;;3.91;87.61
73024;BME280;72676;47.526;8.538;2024-03-06T06:10:16;96638.78;;;4.01;87.09
73024;BME280;72676;47.526;8.538;2024-03-06T06:12:46;96644.47;;;4.08;86.98
73024;BME280;72676;47.526;8.538;2024-03-06T06:15:13;96646.13;;;4.23;86.04
73024;BME280;72676;47.526;8.538;2024-03-06T06:17:39;96651.59;;;4.18;85.61
73024;BME280;72676;47.526;8.538;2024-03-06T06:20:09;96648.72;;;4.23;85.96
73024;BME280;72676;47.526;8.538;2024-03-06T06:22:41;96656.97;;;4.15;85.05
73024;BME280;72676;47.526;8.538;2024-03-06T06:25:08;96653.97;;;4.07;85.91
73024;BME280;72676;47.526;8.538;2024-03-06T06:27:36;96659.38;;;4.18;85.96
73024;BME280;72676;47.526;8.538;2024-03-06T06:30:02;96662.50;;;4.09;85.63
73024;BME280;72676;47.526;8.538;2024-03-06T06:32:32;96656.78;;;4.18;85.73
73024;BME280;72676;47.526;8.538;2024-03-06T06:34:59;96658.19;;;4.38;84.76
73024;BME280;72676;47.526;8.538;2024-03-06T06:37:26;96668.78;;;4.05;85.69
73024;BME280;72676;47.526;8.538;2024-03-06T06:39:52;96674.16;;;4.02;86.37
73024;BME280;72676;47.526;8.538;2024-03-06T06:42:19;96677.09;;;3.96;86.60
73024;BME280;72676;47.526;8.538;2024-03-06T06:44:45;96668.47;;;3.82;86.65
73024;BME280;72676;47.526;8.538;2024-03-06T06:47:12;96683.34;;;3.78;87.51
73024;BME280;72676;47.526;8.538;2024-03-06T06:49:38;96683.53;;;3.75;87.78
73024;BME280;72676;47.526;8.538;2024-03-06T06:52:05;96687.50;;;3.81;87.42
73024;BME280;72676;47.526;8.538;2024-03-06T06:54:31;96684.78;;;3.68;87.94
73024;BME280;72676;47.526;8.538;2024-03-06T06:56:58;96682.94;;;3.70;88.42
73024;BME280;72676;47.526;8.538;2024-03-06T06:59:24;96688.31;;;3.81;88.01
73024;BME280;72676;47.526;8.538;2024-03-06T07:01:51;96676.09;;;3.99;87.67
73024;BME280;72676;47.526;8.538;2024-03-06T07:04:18;96680.22;;;4.17;86.76
73024;BME280;72676;47.526;8.538;2024-03-06T07:06:46;96672.84;;;4.09;86.10
73024;BME280;72676;47.526;8.538;2024-03-06T07:09:12;96675.91;;;4.02;86.10
73024;BME280;72676;47.526;8.538;2024-03-06T07:11:41;96675.09;;;4.15;86.25
73024;BME280;72676;47.526;8.538;2024-03-06T07:14:09;96689.31;;;4.38;85.87
73024;BME280;72676;47.526;8.538;2024-03-06T07:16:41;96680.69;;;4.37;86.41
73024;BME280;72676;47.526;8.538;2024-03-06T07:19:08;96688.13;;;4.57;85.74
73024;BME280;72676;47.526;8.538;2024-03-06T07:21:35;96681.06;;;4.73;84.82
73024;BME280;72676;47.526;8.538;2024-03-06T07:24:02;96685.34;;;4.60;84.31
73024;BME280;72676;47.526;8.538;2024-03-06T07:26:28;96686.53;;;4.69;84.09
73024;BME280;72676;47.526;8.538;2024-03-06T07:28:56;96690.16;;;4.52;83.68
73024;BME280;72676;47.526;8.538;2024-03-06T07:31:25;96688.94;;;4.44;84.91
73024;BME280;72676;47.526;8.538;2024-03-06T07:33:51;96688.47;;;4.65;85.23
73024;BME280;72676;47.526;8.538;2024-03-06T07:36:19;96697.72;;;4.55;85.03
73024;BME280;72676;47.526;8.538;2024-03-06T07:38:45;96705.16;;;4.61;84.52
73024;BME280;72676;47.526;8.538;2024-03-06T07:41:12;96707.00;;;4.73;85.13
73024;BME280;72676;47.526;8.538;2024-03-06T07:43:38;96701.25;;;4.82;84.01
73024;BME280;72676;47.526;8.538;2024-03-06T07:46:05;96703.78;;;4.84;84.41
73024;BME280;72676;47.526;8.538;2024-03-06T07:48:37;96704.88;;;4.94;83.74
73024;BME280;72676;47.526;8.538;2024-03-06T07:51:03;96704.34;;;4.89;83.83
73024;BME280;72676;47.526;8.538;2024-03-06T07:53:30;96711.47;;;4.85;83.26
73024;BME280;72676;47.526;8.538;2024-03-06T07:55:57;96712.19;;;5.01;83.10
73024;BME280;72676;47.526;8.538;2024-03-06T07:58:23;96713.31;;;5.11;83.25
73024;BME280;72676;47.526;8.538;2024-03-06T08:00:50;96718.66;;;5.22;82.83
73024;BME280;72676;47.526;8.538;2024-03-06T08:03:20;96721.97;;;5.38;81.78
73024;BME280;72676;47.526;8.538;2024-03-06T08:05:46;96719.44;;;5.51;82.07
73024;BME280;72676;47.526;8.538;2024-03-06T08:08:13;96718.97;;;5.58;81.45
73024;BME280;72676;47.526;8.538;2024-03-06T08:10:40;96719.91;;;5.57;81.68
73024;BME280;72676;47.526;8.538;2024-03-06T08:13:07;96731.94;;;5.58;81.33
73024;BME280;72676;47.526;8.538;2024-03-06T08:15:33;96729.34;;;5.58;81.64
73024;BME280;72676;47.526;8.538;2024-03-06T08:18:00;96736.56;;;5.67;81.13
73024;BME280;72676;47.526;8.538;2024-03-06T08:20:26;96736.34;;;5.84;80.76
73024;BME280;72676;47.526;8.538;2024-03-06T08:22:55;96733.66;;;5.85;80.48
73024;BME280;72676;47.526;8.538;2024-03-06T08:25:22;96735.34;;;5.72;80.56
73024;BME280;72676;47.526;8.538;2024-03-06T08:27:49;96732.44;;;5.77;81.00
73024;BME280;72676;47.526;8.538;2024-03-06T08:30:15;96736.53;;;5.41;82.01
73024;BME280;72676;47.526;8.538;2024-03-06T08:32:42;96734.22;;;5.36;82.84
73024;BME280;72676;47.526;8.538;2024-03-06T08:35:12;96740.22;;;5.51;82.32
73024;BME280;72676;47.526;8.538;2024-03-06T08:37:44;96741.00;;;5.65;82.25
73024;BME280;72676;47.526;8.538;2024-03-06T08:40:10;96741.72;;;5.81;81.42
73024;BME280;72676;47.526;8.538;2024-03-06T08:42:41;96739.69;;;5.86;81.27
73024;BME280;72676;47.526;8.538;2024-03-06T08:45:11;96737.31;;;5.55;81.76
73024;BME280;72676;47.526;8.538;2024-03-06T08:47:38;96743.94;;;5.33;83.42
73024;BME280;72676;47.526;8.538;2024-03-06T08:50:05;96744.03;;;5.45;83.12
73024;BME280;72676;47.526;8.538;2024-03-06T08:52:32;96750.25;;;5.43;83.34
73024;BME280;72676;47.526;8.538;2024-03-06T08:54:58;96754.25;;;5.20;84.11
73024;BME280;72676;47.526;8.538;2024-03-06T08:57:25;96758.56;;;5.21;84.68
73024;BME280;72676;47.526;8.538;2024-03-06T08:59:54;96766.03;;;5.40;84.46
73024;BME280;72676;47.526;8.538;2024-03-06T09:02:21;96760.03;;;5.65;83.69
73024;BME280;72676;47.526;8.538;2024-03-06T09:04:48;96761.50;;;5.69;83.27
73024;BME280;72676;47.526;8.538;2024-03-06T09:07:15;96762.25;;;5.71;82.78
73024;BME280;72676;47.526;8.538;2024-03-06T09:09:41;96768.69;;;5.66;82.86
73024;BME280;72676;47.526;8.538;2024-03-06T09:12:09;96773.31;;;5.61;83.30
73024;BME280;72676;47.526;8.538;2024-03-06T09:14:37;96777.00;;;5.71;83.53
73024;BME280;72676;47.526;8.538;2024-03-06T09:17:05;96778.16;;;5.53;83.47
73024;BME280;72676;47.526;8.538;2024-03-06T09:19:32;96779.88;;;5.66;83.56
73024;BME280;72676;47.526;8.538;2024-03-06T09:21:59;96786.69;;;5.55;83.88
73024;BME280;72676;47.526;8.538;2024-03-06T09:24:26;96784.56;;;5.48;83.89
73024;BME280;72676;47.526;8.538;2024-03-06T09:26:54;96789.19;;;5.57;84.06
73024;BME280;72676;47.526;8.538;2024-03-06T09:29:21;96787.03;;;5.63;83.86
73024;BME280;72676;47.526;8.538;2024-03-06T09:31:48;96788.69;;;5.64;84.23
73024;BME280;72676;47.526;8.538;2024-03-06T09:34:15;96793.44;;;5.71;84.07
73024;BME280;72676;47.526;8.538;2024-03-06T09:36:45;96796.47;;;5.92;83.35
73024;BME280;72676;47.526;8.538;2024-03-06T09:39:12;96795.91;;;5.73;83.66
73024;BME280;72676;47.526;8.538;2024-03-06T09:41:41;96792.81;;;5.54;84.47
73024;BME280;72676;47.526;8.538;2024-03-06T09:44:08;96795.31;;;5.42;85.12
73024;BME280;72676;47.526;8.538;2024-03-06T09:46:34;96794.97;;;5.20;86.12
73024;BME280;72676;47.526;8.538;2024-03-06T09:49:01;96803.03;;;5.15;86.81
73024;BME280;72676;47.526;8.538;2024-03-06T09:51:28;96796.66;;;5.21;86.17
73024;BME280;72676;47.526;8.538;2024-03-06T09:53:57;96796.72;;;5.33;86.76
73024;BME280;72676;47.526;8.538;2024-03-06T09:56:24;96794.53;;;5.13;87.57
73024;BME280;72676;47.526;8.538;2024-03-06T09:58:51;96788.47;;;5.41;87.51
73024;BME280;72676;47.526;8.538;2024-03-06T10:01:21;96793.00;;;5.51;86.62
73024;BME280;72676;47.526;8.538;2024-03-06T10:03:50;96785.13;;;5.39;86.23
73024;BME280;72676;47.526;8.538;2024-03-06T10:06:16;96787.66;;;5.12;87.64
73024;BME280;72676;47.526;8.538;2024-03-06T10:08:43;96792.31;;;5.21;88.34
73024;BME280;72676;47.526;8.538;2024-03-06T10:11:11;96788.66;;;5.38;88.08
73024;BME280;72676;47.526;8.538;2024-03-06T10:13:38;96798.03;;;5.40;88.30
73024;BME280;72676;47.526;8.538;2024-03-06T10:16:05;96797.56;;;5.34;88.83
73024;BME280;72676;47.526;8.538;2024-03-06T10:18:36;96797.56;;;5.34;88.21
73024;BME280;72676;47.526;8.538;2024-03-06T10:21:05;96801.53;;;5.53;87.65
73024;BME280;72676;47.526;8.538;2024-03-06T10:23:32;96796.09;;;5.30;87.39
73024;BME280;72676;47.526;8.538;2024-03-06T10:25:59;96794.88;;;5.35;88.34
73024;BME280;72676;47.526;8.538;2024-03-06T10:28:25;96795.59;;;5.37;88.78
73024;BME280;72676;47.526;8.538;2024-03-06T10:31:03;96793.84;;;5.38;87.99
73024;BME280;72676;47.526;8.538;2024-03-06T10:33:31;96796.34;;;5.53;88.04
73024;BME280;72676;47.526;8.538;2024-03-06T10:35:57;96797.66;;;5.32;88.43
73024;BME280;72676;47.526;8.538;2024-03-06T10:38:34;96795.81;;;5.48;88.34
73024;BME280;72676;47.526;8.538;2024-03-06T10:41:02;96794.25;;;5.72;87.48
73024;BME280;72676;47.526;8.538;2024-03-06T10:43:31;96793.97;;;5.90;86.75
73024;BME280;72676;47.526;8.538;2024-03-06T10:46:06;96790.81;;;5.85;85.92
73024;BME280;72676;47.526;8.538;2024-03-06T10:48:37;96789.00;;;6.00;86.24
73024;BME280;72676;47.526;8.538;2024-03-06T10:51:05;96787.59;;;6.08;86.28
73024;BME280;72676;47.526;8.538;2024-03-06T10:53:34;96791.38;;;6.17;85.95
73024;BME280;72676;47.526;8.538;2024-03-06T10:56:01;96782.00;;;6.14;85.84
73024;BME280;72676;47.526;8.538;2024-03-06T10:58:29;96786.16;;;6.17;84.66
73024;BME280;72676;47.526;8.538;2024-03-06T11:00:56;96788.06;;;6.01;85.72
73024;BME280;72676;47.526;8.538;2024-03-06T11:03:25;96790.00;;;5.71;86.48
73024;BME280;72676;47.526;8.538;2024-03-06T11:05:52;96797.03;;;5.83;87.49
73024;BME280;72676;47.526;8.538;2024-03-06T11:08:19;96803.59;;;6.02;86.35
73024;BME280;72676;47.526;8.538;2024-03-06T11:10:46;96808.63;;;6.18;86.39
73024;BME280;72676;47.526;8.538;2024-03-06T11:13:23;96811.97;;;6.20;85.34
73024;BME280;72676;47.526;8.538;2024-03-06T11:15:52;96804.72;;;6.25;84.84
73024;BME280;72676;47.526;8.538;2024-03-06T11:24:17;96811.38;;;5.48;87.77
73024;BME280;72676;47.526;8.538;2024-03-06T11:26:59;96809.53;;;5.50;87.80
73024;BME280;72676;47.526;8.538;2024-03-06T11:30:10;96804.50;;;5.47;88.26
73024;BME280;72676;47.526;8.538;2024-03-06T11:32:59;96813.22;;;5.46;88.36
73024;BME280;72676;47.526;8.538;2024-03-06T11:35:28;96801.72;;;5.36;88.88
73024;BME280;72676;47.526;8.538;2024-03-06T11:37:54;96801.72;;;5.36;89.15
73024;BME280;72676;47.526;8.538;2024-03-06T11:40:25;96805.16;;;5.51;89.99
73024;BME280;72676;47.526;8.538;2024-03-06T11:42:51;96801.44;;;5.55;89.67
73024;BME280;72676;47.526;8.538;2024-03-06T11:45:19;96799.84;;;5.66;89.39
73024;BME280;72676;47.526;8.538;2024-03-06T11:48:01;96803.47;;;5.63;89.67
73024;BME280;72676;47.526;8.538;2024-03-06T11:50:29;96798.66;;;5.57;89.17
73024;BME280;72676;47.526;8.538;2024-03-06T11:52:59;96797.34;;;5.64;89.73
73024;BME280;72676;47.526;8.538;2024-03-06T11:55:25;96796.06;;;5.57;90.05
73024;BME280;72676;47.526;8.538;2024-03-06T11:57:52;96794.47;;;5.69;89.87
73024;BME280;72676;47.526;8.538;2024-03-06T12:00:22;96798.53;;;5.73;89.90
73024;BME280;72676;47.526;8.538;2024-03-06T12:02:52;96795.50;;;5.80;89.64
73024;BME280;72676;47.526;8.538;2024-03-06T12:05:19;96794.16;;;5.87;89.61
73024;BME280;72676;47.526;8.538;2024-03-06T12:07:47;96797.28;;;5.78;89.13
73024;BME280;72676;47.526;8.538;2024-03-06T12:10:13;96791.66;;;5.72;89.73
73024;BME280;72676;47.526;8.538;2024-03-06T12:12:43;96798.53;;;5.73;89.20
73024;BME280;72676;47.526;8.538;2024-03-06T12:15:11;96784.97;;;5.82;89.51
73024;BME280;72676;47.526;8.538;2024-03-06T12:17:47;96791.66;;;5.86;89.38
73024;BME280;72676;47.526;8.538;2024-03-06T12:20:15;96792.31;;;5.75;89.02
73024;BME280;72676;47.526;8.538;2024-03-06T12:22:53;96786.47;;;5.86;88.66
73024;BME280;72676;47.526;8.538;2024-03-06T12:27:47;96796.13;;;5.70;89.19
73024;BME280;72676;47.526;8.538;2024-03-06T12:30:21;96792.22;;;5.63;89.27
73024;BME280;72676;47.526;8.538;2024-03-06T12:32:59;96787.09;;;5.75;89.17
73024;BME280;72676;47.526;8.538;2024-03-06T12:35:26;96786.38;;;5.73;88.81
73024;BME280;72676;47.526;8.538;2024-03-06T12:37:53;96792.03;;;5.80;89.30
73024;BME280;72676;47.526;8.538;2024-03-06T12:40:20;96791.13;;;5.67;88.97
73024;BME280;72676;47.526;8.538;2024-03-06T12:42:47;96784.59;;;5.74;89.16
73024;BME280;72676;47.526;8.538;2024-03-06T12:45:15;96776.63;;;5.77;89.15
73024;BME280;72676;47.526;8.538;2024-03-06T12:47:43;96779.59;;;5.85;89.27
73024;BME280;72676;47.526;8.538;2024-03-06T12:50:10;96778.31;;;6.04;89.26
73024;BME280;72676;47.526;8.538;2024-03-06T12:52:37;96783.06;;;6.24;88.50
73024;BME280;72676;47.526;8.538;2024-03-06T12:55:04;96777.38;;;6.05;87.72
73024;BME280;72676;47.526;8.538;2024-03-06T12:57:34;96781.63;;;5.94;88.01
73024;BME280;72676;47.526;8.538;2024-03-06T13:00:00;96778.97;;;5.81;88.66
73024;BME280;72676;47.526;8.538;2024-03-06T13:02:27;96779.19;;;5.91;88.83
73024;BME280;72676;47.526;8.538;2024-03-06T13:04:53;96777.16;;;5.96;88.85
73024;BME280;72676;47.526;8.538;2024-03-06T13:07:20;96775.72;;;6.04;89.04
73024;BME280;72676;47.526;8.538;2024-03-06T13:09:46;96777.28;;;6.07;88.21
73024;BME280;72676;47.526;8.538;2024-03-06T13:12:13;96779.94;;;5.93;88.10
73024;BME280;72676;47.526;8.538;2024-03-06T13:14:39;96780.97;;;5.90;88.29
73024;BME280;72676;47.526;8.538;2024-03-06T13:17:06;96779.41;;;5.88;88.80
73024;BME280;72676;47.526;8.538;2024-03-06T13:19:34;96779.59;;;5.85;88.93
73024;BME280;72676;47.526;8.538;2024-03-06T13:22:00;96781.25;;;5.72;89.41
73024;BME280;72676;47.526;8.538;2024-03-06T13:24:31;96787.78;;;5.65;88.83
73024;BME280;72676;47.526;8.538;2024-03-06T13:26:57;96775.72;;;5.64;89.56
73024;BME280;72676;47.526;8.538;2024-03-06T13:29:24;96777.38;;;5.79;89.72